sensor_id;sensor_type;location;lat;lon;timestamp;P1;durP1;ratioP1;P2;durP2;ratioP2
73239;SDS011;61452;40.054;4.110;2023-04-01T00:04:27;5.55;;;2.50;;
73239;SDS011;61452;40.054;4.110;2023-04-01T00:09:29;5.43;;;2.83;;
73239;SDS011;61452;40.054;4.110;2023-04-01T00:14:31;4.28;;;2.75;;
73239;SDS011;61452;40.054;4.110;2023-04-01T00:19:33;5.20;;;2.60;;
73239;SDS011;61452;40.054;4.110;2023-04-01T00:24:35;4.82;;;2.70;;
73239;SDS011;61452;40.054;4.110;2023-04-01T00:29:38;7.18;;;3.10;;
73239;SDS011;61452;40.054;4.110;2023-04-01T00:34:44;6.15;;;3.10;;
73239;SDS011;61452;40.054;4.110;2023-04-01T00:39:47;6.97;;;2.90;;
73239;SDS011;61452;40.054;4.110;2023-04-01T00:44:50;5.35;;;2.78;;
73239;SDS011;61452;40.054;4.110;2023-04-01T00:49:54;7.03;;;2.60;;
73239;SDS011;61452;40.054;4.110;2023-04-01T00:54:56;6.28;;;2.65;;
73239;SDS011;61452;40.054;4.110;2023-04-01T01:00:04;4.53;;;2.85;;
73239;SDS011;61452;40.054;4.110;2023-04-01T01:05:12;3.65;;;2.60;;
73239;SDS011;61452;40.054;4.110;2023-04-01T01:10:17;5.32;;;2.60;;
73239;SDS011;61452;40.054;4.110;2023-04-01T01:15:21;5.18;;;2.78;;
73239;SDS011;61452;40.054;4.110;2023-04-01T01:20:31;6.65;;;2.67;;
73239;SDS011;61452;40.054;4.110;2023-04-01T01:25:40;7.38;;;3.33;;
73239;SDS011;61452;40.054;4.110;2023-04-01T01:31:09;5.28;;;2.63;;
73239;SDS011;61452;40.054;4.110;2023-04-01T01:36:13;6.78;;;2.53;;
73239;SDS011;61452;40.054;4.110;2023-04-01T01:41:17;6.53;;;3.17;;
73239;SDS011;61452;40.054;4.110;2023-04-01T01:46:21;5.32;;;2.55;;
73239;SDS011;61452;40.054;4.110;2023-04-01T01:51:26;6.95;;;2.90;;
73239;SDS011;61452;40.054;4.110;2023-04-01T01:56:29;7.18;;;2.92;;
73239;SDS011;61452;40.054;4.110;2023-04-01T02:01:35;5.90;;;2.63;;
73239;SDS011;61452;40.054;4.110;2023-04-01T02:06:47;5.05;;;2.33;;
73239;SDS011;61452;40.054;4.110;2023-04-01T02:12:05;6.25;;;2.80;;
73239;SDS011;61452;40.054;4.110;2023-04-01T02:17:18;8.00;;;2.65;;
73239;SDS011;61452;40.054;4.110;2023-04-01T02:22:23;3.80;;;2.40;;
73239;SDS011;61452;40.054;4.110;2023-04-01T02:27:29;6.13;;;2.45;;
73239;SDS011;61452;40.054;4.110;2023-04-01T02:32:33;5.00;;;2.50;;
73239;SDS011;61452;40.054;4.110;2023-04-01T02:37:39;4.07;;;2.40;;
73239;SDS011;61452;40.054;4.110;2023-04-01T02:42:44;5.80;;;2.63;;
73239;SDS011;61452;40.054;4.110;2023-04-01T02:47:46;9.32;;;2.40;;
73239;SDS011;61452;40.054;4.110;2023-04-01T02:52:48;6.15;;;2.40;;
73239;SDS011;61452;40.054;4.110;2023-04-01T02:57:50;6.32;;;2.60;;
73239;SDS011;61452;40.054;4.110;2023-04-01T03:02:52;5.80;;;2.08;;
73239;SDS011;61452;40.054;4.110;2023-04-01T03:07:55;4.15;;;2.00;;
73239;SDS011;61452;40.054;4.110;2023-04-01T03:12:57;5.47;;;2.15;;
73239;SDS011;61452;40.054;4.110;2023-04-01T03:18:00;5.90;;;1.90;;
73239;SDS011;61452;40.054;4.110;2023-04-01T03:23:02;7.22;;;2.13;;
73239;SDS011;61452;40.054;4.110;2023-04-01T03:28:04;5.88;;;2.17;;
73239;SDS011;61452;40.054;4.110;2023-04-01T03:33:06;6.10;;;1.95;;
73239;SDS011;61452;40.054;4.110;2023-04-01T03:38:08;5.22;;;2.25;;
73239;SDS011;61452;40.054;4.110;2023-04-01T03:43:10;5.85;;;2.40;;
73239;SDS011;61452;40.054;4.110;2023-04-01T03:48:16;4.53;;;2.10;;
73239;SDS011;61452;40.054;4.110;2023-04-01T03:53:18;4.35;;;1.83;;
73239;SDS011;61452;40.054;4.110;2023-04-01T03:58:21;4.97;;;1.85;;
73239;SDS011;61452;40.054;4.110;2023-04-01T04:03:25;5.32;;;2.00;;
73239;SDS011;61452;40.054;4.110;2023-04-01T04:08:28;5.07;;;2.40;;
73239;SDS011;61452;40.054;4.110;2023-04-01T04:13:30;6.53;;;2.08;;
73239;SDS011;61452;40.054;4.110;2023-04-01T04:18:35;4.63;;;1.98;;
73239;SDS011;61452;40.054;4.110;2023-04-01T04:23:38;4.30;;;1.90;;
73239;SDS011;61452;40.054;4.110;2023-04-01T04:28:40;4.13;;;1.60;;
73239;SDS011;61452;40.054;4.110;2023-04-01T04:33:43;4.40;;;1.88;;
73239;SDS011;61452;40.054;4.110;2023-04-01T04:38:45;4.43;;;1.65;;
73239;SDS011;61452;40.054;4.110;2023-04-01T04:43:49;6.07;;;2.10;;
73239;SDS011;61452;40.054;4.110;2023-04-01T04:48:53;4.63;;;1.50;;
73239;SDS011;61452;40.054;4.110;2023-04-01T04:53:55;6.95;;;2.05;;
73239;SDS011;61452;40.054;4.110;2023-04-01T04:59:09;5.00;;;2.03;;
73239;SDS011;61452;40.054;4.110;2023-04-01T05:04:18;5.95;;;1.77;;
73239;SDS011;61452;40.054;4.110;2023-04-01T05:09:21;3.90;;;1.52;;
73239;SDS011;61452;40.054;4.110;2023-04-01T05:14:23;4.03;;;1.88;;
73239;SDS011;61452;40.054;4.110;2023-04-01T05:19:32;4.47;;;1.85;;
73239;SDS011;61452;40.054;4.110;2023-04-01T05:24:35;3.20;;;1.70;;
73239;SDS011;61452;40.054;4.110;2023-04-01T05:29:37;4.70;;;1.75;;
73239;SDS011;61452;40.054;4.110;2023-04-01T05:34:42;4.50;;;1.90;;
73239;SDS011;61452;40.054;4.110;2023-04-01T05:39:44;5.20;;;1.88;;
73239;SDS011;61452;40.054;4.110;2023-04-01T05:44:46;5.30;;;1.63;;
73239;SDS011;61452;40.054;4.110;2023-04-01T05:50:15;4.30;;;1.48;;
73239;SDS011;61452;40.054;4.110;2023-04-01T05:55:17;5.70;;;1.70;;
73239;SDS011;61452;40.054;4.110;2023-04-01T06:00:20;3.75;;;1.70;;
73239;SDS011;61452;40.054;4.110;2023-04-01T06:05:24;3.85;;;1.50;;
73239;SDS011;61452;40.054;4.110;2023-04-01T06:10:35;3.53;;;1.73;;
73239;SDS011;61452;40.054;4.110;2023-04-01T06:16:15;3.03;;;1.35;;
73239;SDS011;61452;40.054;4.110;2023-04-01T06:32:40;4.78;;;1.67;;
73239;SDS011;61452;40.054;4.110;2023-04-01T06:59:52;4.18;;;1.50;;
73239;SDS011;61452;40.054;4.110;2023-04-01T07:04:57;5.07;;;1.83;;
73239;SDS011;61452;40.054;4.110;2023-04-01T07:10:20;4.05;;;1.50;;
73239;SDS011;61452;40.054;4.110;2023-04-01T07:15:58;4.32;;;1.33;;
73239;SDS011;61452;40.054;4.110;2023-04-01T07:21:19;3.80;;;1.42;;
73239;SDS011;61452;40.054;4.110;2023-04-01T07:26:29;3.42;;;1.42;;
73239;SDS011;61452;40.054;4.110;2023-04-01T07:42:31;4.03;;;1.25;;
73239;SDS011;61452;40.054;4.110;2023-04-01T07:58:47;3.88;;;1.50;;
73239;SDS011;61452;40.054;4.110;2023-04-01T08:04:51;2.92;;;1.33;;
73239;SDS011;61452;40.054;4.110;2023-04-01T08:16:20;4.25;;;1.50;;
73239;SDS011;61452;40.054;4.110;2023-04-01T08:21:43;4.05;;;1.58;;
73239;SDS011;61452;40.054;4.110;2023-04-01T08:26:49;4.43;;;1.90;;
73239;SDS011;61452;40.054;4.110;2023-04-01T08:32:03;4.60;;;1.70;;
73239;SDS011;61452;40.054;4.110;2023-04-01T08:37:15;3.65;;;1.45;;
73239;SDS011;61452;40.054;4.110;2023-04-01T08:42:41;5.25;;;2.08;;
73239;SDS011;61452;40.054;4.110;2023-04-01T08:53:37;3.35;;;1.50;;
73239;SDS011;61452;40.054;4.110;2023-04-01T09:16:16;5.60;;;1.92;;
73239;SDS011;61452;40.054;4.110;2023-04-01T09:48:53;6.88;;;1.77;;
73239;SDS011;61452;40.054;4.110;2023-04-01T09:59:24;5.63;;;1.70;;
73239;SDS011;61452;40.054;4.110;2023-04-01T10:27:21;5.78;;;2.17;;
73239;SDS011;61452;40.054;4.110;2023-04-01T10:32:48;5.43;;;1.92;;
73239;SDS011;61452;40.054;4.110;2023-04-01T11:06:23;6.95;;;2.05;;
73239;SDS011;61452;40.054;4.110;2023-04-01T11:32:57;10.13;;;2.53;;
73239;SDS011;61452;40.054;4.110;2023-04-01T11:38:10;5.95;;;2.10;;
73239;SDS011;61452;40.054;4.110;2023-04-01T12:11:51;9.88;;;2.33;;
73239;SDS011;61452;40.054;4.110;2023-04-01T12:49:10;7.03;;;2.30;;
73239;SDS011;61452;40.054;4.110;2023-04-01T13:10:30;10.68;;;3.28;;
73239;SDS011;61452;40.054;4.110;2023-04-01T13:15:52;10.35;;;2.10;;
73239;SDS011;61452;40.054;4.110;2023-04-01T13:37:48;13.65;;;3.30;;
73239;SDS011;61452;40.054;4.110;2023-04-01T13:43:01;11.70;;;2.78;;
73239;SDS011;61452;40.054;4.110;2023-04-01T13:48:11;10.52;;;3.15;;
73239;SDS011;61452;40.054;4.110;2023-04-01T14:04:27;12.00;;;3.33;;
73239;SDS011;61452;40.054;4.110;2023-04-01T14:31:13;12.52;;;3.42;;
73239;SDS011;61452;40.054;4.110;2023-04-01T14:36:41;11.93;;;3.47;;
73239;SDS011;61452;40.054;4.110;2023-04-01T14:41:48;16.88;;;3.83;;
73239;SDS011;61452;40.054;4.110;2023-04-01T14:52:26;17.38;;;4.38;;
73239;SDS011;61452;40.054;4.110;2023-04-01T14:57:32;17.95;;;4.28;;
73239;SDS011;61452;40.054;4.110;2023-04-01T15:02:40;17.45;;;4.30;;
73239;SDS011;61452;40.054;4.110;2023-04-01T15:39:57;12.23;;;3.63;;
73239;SDS011;61452;40.054;4.110;2023-04-01T15:56:16;15.40;;;5.00;;
73239;SDS011;61452;40.054;4.110;2023-04-01T16:12:19;9.82;;;3.25;;
73239;SDS011;61452;40.054;4.110;2023-04-01T16:28:53;10.57;;;3.50;;
73239;SDS011;61452;40.054;4.110;2023-04-01T16:34:09;10.30;;;3.85;;
73239;SDS011;61452;40.054;4.110;2023-04-01T16:50:24;12.10;;;3.67;;
73239;SDS011;61452;40.054;4.110;2023-04-01T16:56:16;10.57;;;3.63;;
73239;SDS011;61452;40.054;4.110;2023-04-01T17:01:14;7.68;;;3.28;;
73239;SDS011;61452;40.054;4.110;2023-04-01T17:11:53;10.88;;;3.22;;
73239;SDS011;61452;40.054;4.110;2023-04-01T17:18:07;9.85;;;3.47;;
73239;SDS011;61452;40.054;4.110;2023-04-01T17:33:25;8.07;;;2.65;;
73239;SDS011;61452;40.054;4.110;2023-04-01T17:44:18;9.13;;;2.72;;
73239;SDS011;61452;40.054;4.110;2023-04-01T17:55:03;9.88;;;3.50;;
73239;SDS011;61452;40.054;4.110;2023-04-01T18:00:34;8.77;;;2.95;;
73239;SDS011;61452;40.054;4.110;2023-04-01T18:21:54;6.55;;;2.47;;
73239;SDS011;61452;40.054;4.110;2023-04-01T18:27:02;7.50;;;2.85;;
73239;SDS011;61452;40.054;4.110;2023-04-01T18:32:16;6.45;;;2.42;;
73239;SDS011;61452;40.054;4.110;2023-04-01T18:37:59;7.60;;;2.78;;
73239;SDS011;61452;40.054;4.110;2023-04-01T18:54:12;6.80;;;2.40;;
73239;SDS011;61452;40.054;4.110;2023-04-01T18:59:28;6.93;;;2.65;;
73239;SDS011;61452;40.054;4.110;2023-04-01T19:04:52;7.07;;;2.40;;
73239;SDS011;61452;40.054;4.110;2023-04-01T19:27:02;7.18;;;2.13;;
73239;SDS011;61452;40.054;4.110;2023-04-01T19:37:54;8.50;;;2.45;;
73239;SDS011;61452;40.054;4.110;2023-04-01T19:53:44;5.28;;;2.50;;
73239;SDS011;61452;40.054;4.110;2023-04-01T19:58:59;6.72;;;2.70;;
73239;SDS011;61452;40.054;4.110;2023-04-01T20:09:45;6.15;;;2.25;;
73239;SDS011;61452;40.054;4.110;2023-04-01T20:14:51;6.78;;;2.67;;
73239;SDS011;61452;40.054;4.110;2023-04-01T20:25:16;5.43;;;2.03;;
73239;SDS011;61452;40.054;4.110;2023-04-01T20:51:26;7.50;;;2.47;;
73239;SDS011;61452;40.054;4.110;2023-04-01T20:56:34;6.32;;;2.00;;
73239;SDS011;61452;40.054;4.110;2023-04-01T21:07:25;6.00;;;2.72;;
73239;SDS011;61452;40.054;4.110;2023-04-01T22:02:04;9.82;;;1.95;;
73239;SDS011;61452;40.054;4.110;2023-04-01T22:17:30;13.55;;;1.88;;
73239;SDS011;61452;40.054;4.110;2023-04-01T22:33:38;11.20;;;2.30;;
73239;SDS011;61452;40.054;4.110;2023-04-01T22:54:48;9.85;;;2.10;;
73239;SDS011;61452;40.054;4.110;2023-04-01T22:59:59;12.20;;;2.60;;
73239;SDS011;61452;40.054;4.110;2023-04-01T23:05:12;10.50;;;2.30;;
73239;SDS011;61452;40.054;4.110;2023-04-01T23:10:25;10.13;;;2.22;;
73239;SDS011;61452;40.054;4.110;2023-04-01T23:15:31;12.27;;;2.05;;
73239;SDS011;61452;40.054;4.110;2023-04-01T23:31:38;13.23;;;2.35;;
73239;SDS011;61452;40.054;4.110;2023-04-01T23:36:52;13.40;;;2.53;;
73239;SDS011;61452;40.054;4.110;2023-04-01T23:42:42;9.20;;;2.38;;
73239;SDS011;61452;40.054;4.110;2023-04-01T23:47:24;8.93;;;2.17;;
73239;SDS011;61452;40.054;4.110;2023-04-01T23:52:35;11.80;;;1.90;;
73239;SDS011;61452;40.054;4.110;2023-04-01T23:57:41;10.93;;;1.85;;
